Time;durP1;ratioP1;P1;durP2;ratioP2;P2;SDS_P1;SDS_P2;PMS_P1;PMS_P2;Temp;Humidity;BMP_temperature;BMP_pressure;BME280_temperature;BME280_humidity;BME280_pressure;Samples;Min_cycle;Max_cycle;Signal;HPM_P1;HPM_P2
2022/07/07 00:02:08;;;;;;;;;2.00;0.00;;;;;20.25;54.10;101667.94;5064256;27;45558;-79
2022/07/07 00:04:34;;;;;;;;;1.00;1.00;;;;;20.27;54.27;101676.84;5062904;28;45370;-80
2022/07/07 00:07:00;;;;;;;;;0.75;0.75;;;;;20.21;54.41;101661.00;5073938;28;45409;-80
2022/07/07 00:09:26;;;;;;;;;0.00;0.00;;;;;20.09;54.30;101650.75;5061181;28;45348;-80
2022/07/07 00:11:51;;;;;;;;;2.00;0.25;;;;;20.20;54.26;101675.34;5076320;27;45645;-81
2022/07/07 00:14:17;;;;;;;;;0.00;0.00;;;;;20.00;54.34;101638.63;5067351;28;45526;-80
2022/07/07 00:16:42;;;;;;;;;0.50;0.50;;;;;20.14;54.65;101659.50;5071331;28;45329;-80
2022/07/07 00:19:14;;;;;;;;;1.25;1.25;;;;;20.18;54.52;101671.88;5062498;28;45602;-81
2022/07/07 00:21:39;;;;;;;;;0.25;0.25;;;;;20.14;54.58;101665.75;5073254;28;47713;-78
2022/07/07 00:24:05;;;;;;;;;0.00;0.00;;;;;20.04;54.56;101645.59;5074531;28;45452;-78
2022/07/07 00:26:31;;;;;;;;;1.00;1.00;;;;;20.03;55.24;101644.75;5073546;27;45415;-78
2022/07/07 00:28:56;;;;;;;;;0.00;0.00;;;;;19.96;54.88;101632.50;5075036;28;45428;-77
2022/07/07 00:31:22;;;;;;;;;1.00;1.00;;;;;20.04;54.71;101654.53;5071146;27;45389;-79
2022/07/07 00:33:47;;;;;;;;;0.00;0.00;;;;;19.99;54.96;101650.31;5064578;27;45483;-79
2022/07/07 00:36:12;;;;;;;;;1.00;1.00;;;;;20.00;54.95;101654.75;5072387;28;45467;-81
2022/07/07 00:38:38;;;;;;;;;0.50;0.50;;;;;19.98;55.11;101649.44;5073951;27;45453;-80
2022/07/07 00:41:03;;;;;;;;;0.25;0.25;;;;;19.99;55.19;101653.84;5058872;28;45499;-80
2022/07/07 00:43:40;;;;;;;;;0.00;0.00;;;;;19.99;55.43;101659.22;5054854;28;45485;-80
2022/07/07 00:46:07;;;;;;;;;1.00;0.00;;;;;19.98;55.32;101649.44;5062020;28;45420;-79
2022/07/07 00:48:35;;;;;;;;;0.00;0.00;;;;;19.94;55.31;101644.28;5061516;28;45339;-81
2022/07/07 00:51:00;;;;;;;;;0.00;0.00;;;;;19.88;55.37;101643.56;5053308;28;47174;-80
2022/07/07 00:53:26;;;;;;;;;0.50;0.00;;;;;19.81;55.38;101628.66;5055378;28;45460;-81
2022/07/07 00:55:51;;;;;;;;;0.00;0.00;;;;;19.73;55.95;101627.25;5073114;28;45441;-79
2022/07/07 00:58:17;;;;;;;;;0.00;0.00;;;;;19.75;55.77;101630.72;5060339;27;45477;-80
2022/07/07 01:00:43;;;;;;;;;1.00;0.00;;;;;19.61;56.06;101612.53;5054825;28;46794;-80
2022/07/07 01:03:09;;;;;;;;;0.00;0.00;;;;;19.71;56.02;101630.84;5061643;28;45594;-80
2022/07/07 01:05:36;;;;;;;;;0.75;0.75;;;;;19.70;56.21;101628.22;5049265;28;45416;-81
2022/07/07 01:08:03;;;;;;;;;0.00;0.00;;;;;19.69;56.13;101622.00;5052508;28;46092;-82
2022/07/07 01:10:29;;;;;;;;;0.00;0.00;;;;;19.66;56.17;101622.13;5067379;27;45807;-80
2022/07/07 01:12:55;;;;;;;;;0.00;0.00;;;;;19.43;56.34;101585.53;5053524;28;45632;-80
2022/07/07 01:15:20;;;;;;;;;0.00;0.00;;;;;19.59;56.52;101617.94;5080751;27;45398;-80
2022/07/07 01:17:45;;;;;;;;;0.50;0.50;;;;;19.56;56.80;101603.81;5076823;27;45253;-81
2022/07/07 01:20:11;;;;;;;;;0.00;0.00;;;;;19.52;56.90;101600.38;5076523;27;46251;-79
2022/07/07 01:22:38;;;;;;;;;0.00;0.00;;;;;19.56;56.77;101609.19;5063808;27;45243;-80
2022/07/07 01:25:05;;;;;;;;;2.00;1.00;;;;;19.36;56.92;101586.75;5055892;28;45419;-80
2022/07/07 01:27:30;;;;;;;;;0.75;0.75;;;;;19.49;57.13;101619.25;5086099;27;45601;-79
2022/07/07 01:29:57;;;;;;;;;1.00;0.00;;;;;19.49;57.05;101617.44;5064253;28;46641;-83
2022/07/07 01:32:25;;;;;;;;;1.25;1.00;;;;;19.48;56.92;101614.81;5073339;27;45779;-79
2022/07/07 01:34:51;;;;;;;;;1.00;0.75;;;;;19.46;56.99;101614.88;5063514;27;45357;-80
2022/07/07 01:37:20;;;;;;;;;1.00;0.00;;;;;19.43;57.05;101608.78;5053839;28;45467;-80
2022/07/07 01:39:46;;;;;;;;;0.00;0.00;;;;;19.31;57.08;101589.59;5069141;28;46715;-80
2022/07/07 01:42:12;;;;;;;;;0.75;0.00;;;;;19.37;57.30;101601.88;5063112;27;45437;-80
2022/07/07 01:44:39;;;;;;;;;1.00;1.00;;;;;19.37;57.32;101603.69;5054164;28;45455;-80
2022/07/07 01:47:06;;;;;;;;;0.00;0.00;;;;;19.39;57.59;101610.72;5054669;28;45372;-81
2022/07/07 01:49:32;;;;;;;;;0.00;0.00;;;;;19.38;57.43;101605.44;5056724;28;45533;-78
2022/07/07 01:51:58;;;;;;;;;0.00;0.00;;;;;19.31;57.40;101594.06;5055115;28;45550;-79
2022/07/07 01:54:25;;;;;;;;;0.00;0.00;;;;;19.30;57.32;101595.88;5068935;28;45372;-80
2022/07/07 01:56:51;;;;;;;;;1.00;1.00;;;;;19.32;57.64;101606.56;5062598;27;45435;-80
2022/07/07 01:59:17;;;;;;;;;0.00;0.00;;;;;19.25;57.87;101592.53;5071787;28;46305;-80
2022/07/07 02:01:42;;;;;;;;;0.50;0.50;;;;;19.30;57.77;101603.06;5075408;27;45267;-80
2022/07/07 02:04:08;;;;;;;;;0.00;0.00;;;;;19.22;57.75;101587.31;5065778;28;45321;-78
2022/07/07 02:06:33;;;;;;;;;2.50;0.00;;;;;19.18;58.06;101577.63;5056953;28;45653;-81
2022/07/07 02:08:59;;;;;;;;;0.00;0.00;;;;;19.17;57.94;101587.47;5067466;27;46268;-80
2022/07/07 02:11:26;;;;;;;;;1.50;1.50;;;;;18.98;57.75;101555.19;5071377;27;45379;-79
2022/07/07 02:13:51;;;;;;;;;1.00;1.00;;;;;19.15;57.71;101580.44;5060720;27;45270;-81
2022/07/07 02:16:19;;;;;;;;;1.00;0.00;;;;;19.11;58.19;101589.53;5065531;27;45574;-80
2022/07/07 02:18:46;;;;;;;;;0.50;0.50;;;;;18.97;58.52;101560.59;5061717;28;46439;-80
2022/07/07 02:21:13;;;;;;;;;1.00;1.00;;;;;19.03;58.32;101568.41;5079755;27;45440;-79
2022/07/07 02:23:45;;;;;;;;;0.75;0.00;;;;;19.07;58.33;101579.84;5079297;28;45348;-79
2022/07/07 02:26:11;;;;;;;;;0.50;0.50;;;;;19.06;57.97;101576.31;5079451;27;45542;-80
2022/07/07 02:28:38;;;;;;;;;0.00;0.00;;;;;18.87;58.19;101546.69;5072808;27;45527;-80
2022/07/07 02:31:04;;;;;;;;;1.00;1.00;;;;;19.00;58.26;101572.06;5058108;28;45526;-79
2022/07/07 02:33:29;;;;;;;;;1.00;1.00;;;;;18.89;58.53;101566.28;5057041;28;45399;-80
2022/07/07 02:35:55;;;;;;;;;1.00;0.00;;;;;18.97;58.54;101582.91;5072001;28;45395;-79
2022/07/07 02:38:22;;;;;;;;;0.50;0.50;;;;;18.84;58.53;101552.13;5076703;28;46203;-80
2022/07/07 02:40:48;;;;;;;;;0.00;0.00;;;;;18.85;58.80;101570.00;5065285;27;45368;-81
2022/07/07 02:43:14;;;;;;;;;1.00;1.00;;;;;18.88;58.94;101575.22;5076140;28;45434;-79
2022/07/07 02:45:41;;;;;;;;;1.00;1.00;;;;;18.85;59.11;101574.44;5078946;27;45523;-80
2022/07/07 02:48:11;;;;;;;;;0.00;0.00;;;;;18.83;58.80;101575.38;5059674;28;45479;-81
2022/07/07 02:50:37;;;;;;;;;0.00;0.00;;;;;18.81;58.94;101568.31;5067326;28;45473;-80
2022/07/07 02:53:03;;;;;;;;;2.25;1.00;;;;;18.80;59.05;101572.81;5077067;27;45456;-81
2022/07/07 02:55:30;;;;;;;;;3.00;0.00;;;;;18.80;59.05;101571.97;5058702;27;45625;-79
2022/07/07 02:57:56;;;;;;;;;0.00;0.00;;;;;18.80;59.02;101575.50;5059751;28;47552;-80
2022/07/07 03:00:21;;;;;;;;;1.00;1.00;;;;;18.80;59.10;101567.47;5059529;28;45494;-80
2022/07/07 03:02:47;;;;;;;;;0.75;0.75;;;;;18.74;59.38;101567.69;5056289;28;45361;-80
2022/07/07 03:05:12;;;;;;;;;1.00;1.00;;;;;18.76;59.38;101565.81;5066200;28;45544;-80
2022/07/07 03:07:38;;;;;;;;;0.50;0.00;;;;;18.76;59.13;101570.31;5056638;28;46173;-80
2022/07/07 03:10:05;;;;;;;;;0.00;0.00;;;;;18.74;59.51;101567.69;5055274;28;45608;-80
2022/07/07 03:12:30;;;;;;;;;3.50;0.75;;;;;18.72;59.28;101558.88;5060135;28;45667;-79
2022/07/07 03:14:56;;;;;;;;;2.00;1.50;;;;;18.72;59.53;101568.69;5065734;28;45811;-79
2022/07/07 03:17:21;;;;;;;;;0.50;0.50;;;;;18.70;59.48;101560.72;5064959;28;47648;-79
2022/07/07 03:19:47;;;;;;;;;1.25;0.75;;;;;18.71;59.33;101564.28;5080334;28;45404;-80
2022/07/07 03:22:12;;;;;;;;;1.50;0.50;;;;;18.67;59.51;101558.16;5071446;27;45748;-81
2022/07/07 03:24:37;;;;;;;;;1.00;0.00;;;;;18.72;59.42;101569.56;5054050;28;45455;-78
2022/07/07 03:27:03;;;;;;;;;0.00;0.00;;;;;18.68;59.52;101559.03;5075565;28;45299;-78
2022/07/07 03:29:28;;;;;;;;;0.00;0.00;;;;;18.66;59.97;101559.09;5069544;27;45579;-78
2022/07/07 03:31:54;;;;;;;;;2.00;2.00;;;;;18.63;59.68;101561.91;5056855;28;45605;-77
2022/07/07 03:34:19;;;;;;;;;1.00;1.00;;;;;18.63;59.95;101554.72;5064578;28;45619;-78
2022/07/07 03:36:44;;;;;;;;;1.75;0.75;;;;;18.61;60.15;101566.41;5053334;28;46354;-80
2022/07/07 03:39:10;;;;;;;;;0.00;0.00;;;;;18.57;60.30;101559.44;5054195;28;45484;-78
2022/07/07 03:41:35;;;;;;;;;2.00;1.00;;;;;18.53;60.25;101564.03;5070285;28;45375;-78
2022/07/07 03:44:00;;;;;;;;;0.25;0.25;;;;;18.47;60.22;101553.56;5064665;27;45478;-78
2022/07/07 03:46:26;;;;;;;;;1.00;1.00;;;;;18.50;60.80;101547.22;5065659;28;48119;-79
2022/07/07 03:48:51;;;;;;;;;2.50;1.75;;;;;18.56;60.66;101565.72;5077497;27;45343;-80
2022/07/07 03:51:17;;;;;;;;;1.00;1.00;;;;;18.56;60.75;101558.56;5100494;27;45399;-80
2022/07/07 03:53:42;;;;;;;;;2.75;2.00;;;;;18.52;60.76;101554.25;5074388;28;45300;-79
2022/07/07 03:56:07;;;;;;;;;1.00;1.00;;;;;18.54;60.90;101554.19;5076343;27;46073;-81
2022/07/07 03:58:34;;;;;;;;;3.00;1.50;;;;;18.50;60.89;101547.22;5082460;28;45457;-81
2022/07/07 04:01:02;;;;;;;;;1.50;1.50;;;;;18.50;61.21;101553.44;5080679;28;45463;-80
2022/07/07 04:03:28;;;;;;;;;3.00;2.00;;;;;18.48;60.94;101549.97;5062957;28;45594;-80
2022/07/07 04:05:53;;;;;;;;;1.00;1.00;;;;;18.19;61.45;101506.44;5068490;28;45483;-80
2022/07/07 04:08:18;;;;;;;;;1.00;1.00;;;;;18.43;61.34;101546.56;5075688;28;45374;-80
2022/07/07 04:10:44;;;;;;;;;2.00;2.00;;;;;18.50;61.16;101550.78;5070959;28;45406;-82
2022/07/07 04:13:09;;;;;;;;;2.00;0.00;;;;;18.40;61.57;101535.97;5053781;28;45602;-80
2022/07/07 04:15:35;;;;;;;;;1.00;1.00;;;;;18.49;61.54;101550.81;5055652;28;46260;-81
2022/07/07 04:18:01;;;;;;;;;1.00;1.00;;;;;18.49;61.61;101551.69;5077128;27;45475;-80
2022/07/07 04:20:26;;;;;;;;;1.00;1.00;;;;;18.53;61.68;101539.94;5074834;28;45444;-82
2022/07/07 04:22:52;;;;;;;;;2.25;0.50;;;;;18.83;60.93;101537.88;5078835;27;45445;-80
2022/07/07 04:25:18;;;;;;;;;1.50;1.00;;;;;19.29;59.89;101553.06;5078241;27;46306;-78
2022/07/07 04:27:44;;;;;;;;;1.00;1.00;;;;;19.64;58.79;101538.19;5061726;28;45396;-78
2022/07/07 04:30:11;;;;;;;;;0.75;0.50;;;;;20.08;57.52;101553.31;5066816;28;45514;-78
2022/07/07 04:32:37;;;;;;;;;1.75;1.00;;;;;20.44;56.66;101549.00;5062491;27;45403;-79
2022/07/07 04:35:03;;;;;;;;;1.50;1.00;;;;;20.87;55.55;101544.34;5055035;28;46372;-78
2022/07/07 04:37:28;;;;;;;;;3.00;3.00;;;;;21.21;54.80;101537.31;5098112;27;45371;-79
2022/07/07 04:39:53;;;;;;;;;2.25;2.25;;;;;21.50;53.84;101514.41;5073454;28;45382;-79
2022/07/07 04:42:19;;;;;;;;;1.00;1.00;;;;;22.02;52.20;101547.63;5072097;27;45337;-79
2022/07/07 04:44:44;;;;;;;;;1.00;1.00;;;;;22.24;51.73;101544.63;5062818;28;45592;-78
2022/07/07 04:47:11;;;;;;;;;1.00;1.00;;;;;22.58;51.31;101551.78;5053694;28;45361;-78
2022/07/07 04:49:36;;;;;;;;;1.00;1.00;;;;;22.97;50.40;101547.81;5059277;28;45473;-80
2022/07/07 04:52:01;;;;;;;;;2.75;2.75;;;;;23.41;49.13;101562.38;5072729;27;45467;-78
2022/07/07 04:54:27;;;;;;;;;1.75;1.50;;;;;23.37;49.00;101563.53;5066753;27;46602;-79
2022/07/07 04:56:52;;;;;;;;;1.25;1.00;;;;;23.06;49.69;101567.97;5054885;28;45538;-78
2022/07/07 04:59:18;;;;;;;;;1.00;0.75;;;;;22.62;50.07;101547.09;5055034;28;45432;-78
2022/07/07 05:01:43;;;;;;;;;2.00;2.00;;;;;22.48;50.97;101564.88;5060645;28;45401;-78
2022/07/07 05:04:09;;;;;;;;;1.50;1.50;;;;;22.21;51.56;101580.66;5051666;27;46493;-78
2022/07/07 05:06:34;;;;;;;;;1.00;1.00;;;;;22.00;52.41;101574.59;5068974;28;45442;-79
2022/07/07 05:08:59;;;;;;;;;1.00;1.00;;;;;21.79;52.52;101580.16;5069199;28;45502;-78
2022/07/07 05:11:25;;;;;;;;;0.25;0.25;;;;;21.52;53.42;101576.19;5071284;27;45367;-79
2022/07/07 05:13:50;;;;;;;;;1.00;1.00;;;;;21.40;53.45;101583.84;5066719;28;46491;-78
2022/07/07 05:16:15;;;;;;;;;0.00;0.00;;;;;21.25;54.22;101595.38;5058195;27;45480;-81
2022/07/07 05:18:41;;;;;;;;;1.00;0.75;;;;;21.12;54.35;101584.38;5063062;28;45338;-79
2022/07/07 05:21:06;;;;;;;;;1.25;1.00;;;;;20.73;55.25;101551.25;5058530;27;45445;-78
2022/07/07 05:23:31;;;;;;;;;2.00;1.00;;;;;20.84;55.57;101592.88;5075876;28;46457;-80
2022/07/07 05:25:57;;;;;;;;;3.00;1.75;;;;;20.58;55.87;101562.69;5061625;27;45386;-80
2022/07/07 05:28:22;;;;;;;;;3.75;1.75;;;;;20.64;56.57;101594.63;5054823;28;45431;-80
2022/07/07 05:30:48;;;;;;;;;1.00;1.00;;;;;20.62;56.75;101588.47;5070123;28;45496;-80
2022/07/07 05:33:13;;;;;;;;;1.50;1.50;;;;;20.23;57.13;101527.59;5060094;28;46349;-81
2022/07/07 05:35:39;;;;;;;;;2.50;2.25;;;;;20.62;57.08;101592.94;5073139;27;45338;-79
2022/07/07 05:38:04;;;;;;;;;2.00;2.00;;;;;20.55;57.17;101600.41;5071582;28;45304;-82
2022/07/07 05:40:30;;;;;;;;;1.25;0.75;;;;;20.50;57.47;101595.25;5061479;28;45435;-81
2022/07/07 05:42:55;;;;;;;;;1.25;1.00;;;;;20.46;57.21;101582.06;5066110;27;47134;-80
2022/07/07 05:45:21;;;;;;;;;1.75;1.75;;;;;20.53;57.35;101580.84;5059021;27;45538;-80
2022/07/07 05:47:47;;;;;;;;;2.00;2.00;;;;;20.63;57.10;101595.56;5056843;28;45516;-79
2022/07/07 05:50:13;;;;;;;;;2.50;2.00;;;;;20.62;57.49;101593.84;5072167;28;45513;-81
2022/07/07 05:52:39;;;;;;;;;1.00;1.00;;;;;20.54;57.38;101572.72;5076337;28;46343;-81
2022/07/07 05:55:05;;;;;;;;;2.00;2.00;;;;;20.68;57.23;101592.69;5084804;28;45380;-79
2022/07/07 05:57:31;;;;;;;;;2.00;2.00;;;;;20.52;57.27;101569.22;5073894;27;45480;-79
2022/07/07 05:59:57;;;;;;;;;2.50;1.00;;;;;20.70;57.08;101596.19;5055541;27;45352;-80
2022/07/07 06:02:22;;;;;;;;;3.00;2.00;;;;;20.53;57.37;101567.41;5071197;28;45559;-79
2022/07/07 06:04:47;;;;;;;;;1.00;1.00;;;;;20.67;56.97;101597.19;5058772;27;45466;-80
2022/07/07 06:07:13;;;;;;;;;2.00;0.50;;;;;20.59;57.82;101592.16;5058033;28;45399;-80
2022/07/07 06:09:38;;;;;;;;;2.75;1.50;;;;;20.64;57.43;101600.00;5068976;28;45581;-79
2022/07/07 06:12:04;;;;;;;;;1.00;1.00;;;;;20.61;57.60;101620.75;5071772;28;45507;-81
2022/07/07 06:14:29;;;;;;;;;4.25;1.00;;;;;20.57;58.04;101628.06;5064470;28;45868;-80
2022/07/07 06:16:55;;;;;;;;;1.50;1.00;;;;;20.48;57.90;101610.59;5066965;27;45466;-81
2022/07/07 06:19:20;;;;;;;;;2.00;2.00;;;;;20.47;58.08;101602.59;5074911;28;45651;-80
2022/07/07 06:21:46;;;;;;;;;1.00;1.00;;;;;20.47;57.70;101616.03;5071393;28;45363;-80
2022/07/07 06:24:11;;;;;;;;;0.00;0.00;;;;;20.50;57.85;101629.31;5070200;28;45595;-80
2022/07/07 06:26:37;;;;;;;;;1.50;1.50;;;;;20.53;58.00;101634.53;5078484;27;45359;-81
2022/07/07 06:29:03;;;;;;;;;0.75;0.00;;;;;20.37;58.19;101613.72;5057115;27;45530;-80
2022/07/07 06:31:29;;;;;;;;;1.00;1.00;;;;;20.54;58.13;101653.28;5067789;27;46787;-80
2022/07/07 06:33:55;;;;;;;;;2.00;1.00;;;;;20.45;58.12;101637.53;5062598;28;45483;-80
2022/07/07 06:36:20;;;;;;;;;1.00;1.00;;;;;20.47;58.50;101640.19;5076827;28;45379;-80
2022/07/07 06:38:46;;;;;;;;;2.00;1.00;;;;;20.39;58.31;101636.03;5076813;28;45375;-81
2022/07/07 06:41:11;;;;;;;;;1.00;1.00;;;;;20.41;58.26;101636.81;5075804;27;45406;-80
2022/07/07 06:43:37;;;;;;;;;3.00;1.00;;;;;20.37;58.41;101634.34;5076077;28;45573;-80
2022/07/07 06:46:02;;;;;;;;;2.50;1.00;;;;;20.38;58.46;101631.59;5071019;28;45356;-81
2022/07/07 06:48:27;;;;;;;;;2.00;1.00;;;;;20.51;58.65;101649.81;5056396;28;45412;-81
2022/07/07 06:50:54;;;;;;;;;4.00;2.00;;;;;20.57;58.21;101658.50;5054022;28;45380;-81
2022/07/07 06:53:20;;;;;;;;;1.25;1.00;;;;;20.57;58.24;101655.81;5060097;28;45387;-80
2022/07/07 06:55:45;;;;;;;;;1.50;0.25;;;;;20.64;58.46;101658.22;5057091;28;45416;-81
2022/07/07 06:58:11;;;;;;;;;1.50;1.00;;;;;20.69;57.98;101657.06;5055871;28;45647;-81
2022/07/07 07:00:36;;;;;;;;;1.50;1.50;;;;;20.72;57.83;101656.94;5055286;28;45558;-80
2022/07/07 07:03:02;;;;;;;;;1.00;1.00;;;;;20.82;57.45;101640.44;5074670;28;45458;-80
2022/07/07 07:05:27;;;;;;;;;1.00;1.00;;;;;20.95;57.35;101657.69;5076165;27;45558;-80
2022/07/07 07:07:52;;;;;;;;;0.75;0.75;;;;;21.06;56.79;101658.09;5076591;28;45415;-80
2022/07/07 07:10:18;;;;;;;;;1.25;1.25;;;;;21.16;56.52;101652.28;5074764;28;46322;-80
2022/07/07 07:12:44;;;;;;;;;1.75;1.75;;;;;21.30;56.31;101658.72;5067264;27;45510;-80
2022/07/07 07:15:10;;;;;;;;;1.00;1.00;;;;;21.36;56.42;101659.38;5056294;28;45415;-80
2022/07/07 07:17:36;;;;;;;;;0.25;0.25;;;;;21.40;55.87;101664.53;5056690;28;45433;-80
2022/07/07 07:20:02;;;;;;;;;2.00;2.00;;;;;21.48;55.64;101667.72;5054794;28;46384;-80
2022/07/07 07:22:28;;;;;;;;;2.00;2.00;;;;;21.54;55.69;101663.00;5056898;28;45475;-80
2022/07/07 07:24:53;;;;;;;;;3.00;1.00;;;;;21.71;55.38;101672.94;5058008;28;45366;-80
2022/07/07 07:27:19;;;;;;;;;1.00;1.00;;;;;21.87;54.82;101678.44;5056324;28;45417;-80
2022/07/07 07:29:44;;;;;;;;;1.00;1.00;;;;;22.02;54.42;101669.59;5070978;28;47086;-80
2022/07/07 07:32:10;;;;;;;;;3.50;2.00;;;;;22.19;53.55;101680.34;5056594;28;45387;-80
2022/07/07 07:34:35;;;;;;;;;0.75;0.75;;;;;22.42;53.35;101681.00;5055639;28;45321;-80
2022/07/07 07:37:01;;;;;;;;;0.25;0.00;;;;;22.61;52.99;101680.03;5055723;28;45445;-81
2022/07/07 07:39:26;;;;;;;;;1.75;1.00;;;;;22.80;52.22;101693.38;5055194;28;45676;-80
2022/07/07 07:41:52;;;;;;;;;2.00;1.25;;;;;22.85;51.96;101680.53;5070495;28;45495;-80
2022/07/07 07:45:09;;;;;;;;;1.00;1.00;;;;;22.83;51.63;101659.06;5056100;28;45766;-80
2022/07/07 07:47:03;;;;;;;;;0.75;0.75;;;;;23.27;51.16;101699.84;5056148;28;45623;-80
2022/07/07 07:49:29;;;;;;;;;0.75;0.50;;;;;23.41;50.82;101702.63;5057494;28;46158;-80
2022/07/07 07:51:54;;;;;;;;;1.50;1.50;;;;;23.50;50.53;101699.41;5062077;28;45388;-80
2022/07/07 07:54:19;;;;;;;;;2.00;2.00;;;;;23.67;50.25;101703.88;5066338;28;45477;-80
2022/07/07 07:56:45;;;;;;;;;0.25;0.25;;;;;23.69;49.46;101656.06;5062783;28;45612;-81
2022/07/07 07:59:10;;;;;;;;;0.50;0.50;;;;;24.26;48.37;101705.84;5057586;28;45499;-78
2022/07/07 08:01:35;;;;;;;;;1.00;1.00;;;;;24.61;48.14;101711.88;5055799;28;45429;-81
2022/07/07 08:04:02;;;;;;;;;1.00;1.00;;;;;25.24;46.58;101708.88;5057545;28;45333;-79
2022/07/07 08:06:27;;;;;;;;;1.00;1.00;;;;;26.29;45.32;101694.72;5056014;28;45429;-80
2022/07/07 08:08:52;;;;;;;;;0.75;0.75;;;;;27.40;43.29;101689.59;5059855;28;45438;-80
2022/07/07 08:11:18;;;;;;;;;1.00;1.00;;;;;28.45;41.43;101687.09;5058888;28;45351;-80
2022/07/07 08:13:43;;;;;;;;;0.50;0.00;;;;;29.23;38.28;101666.41;5055159;28;45396;-78
2022/07/07 08:16:08;;;;;;;;;1.00;1.00;;;;;29.99;36.51;101679.19;5054458;28;45339;-80
2022/07/07 08:18:34;;;;;;;;;1.00;0.00;;;;;30.32;36.72;101660.03;5069923;28;47332;-79
2022/07/07 08:20:59;;;;;;;;;1.00;0.25;;;;;30.83;35.36;101653.75;5055426;28;45350;-81
2022/07/07 08:23:24;;;;;;;;;0.00;0.00;;;;;30.85;34.65;101657.19;5058082;28;45447;-79
2022/07/07 08:25:50;;;;;;;;;1.50;1.00;;;;;30.77;34.62;101640.66;5058717;28;45466;-80
2022/07/07 08:28:15;;;;;;;;;2.00;1.00;;;;;30.40;35.59;101660.28;5055974;28;45376;-81
2022/07/07 08:30:41;;;;;;;;;0.75;0.75;;;;;29.87;35.38;101686.53;5054273;28;45473;-80
2022/07/07 08:33:06;;;;;;;;;1.00;1.00;;;;;29.19;37.16;101678.47;5054723;28;45387;-80
2022/07/07 08:35:32;;;;;;;;;0.00;0.00;;;;;29.17;37.43;101666.88;5054068;28;45489;-79
2022/07/07 08:37:57;;;;;;;;;3.00;1.50;;;;;29.37;37.06;101664.41;5052609;28;45467;-80
2022/07/07 08:40:23;;;;;;;;;1.00;1.00;;;;;29.62;36.97;101676.81;5069905;28;45578;-79
2022/07/07 08:42:49;;;;;;;;;0.50;0.50;;;;;29.33;37.19;101646.59;5054037;28;45348;-80
2022/07/07 08:45:14;;;;;;;;;0.25;0.25;;;;;29.47;36.62;101672.66;5054179;28;45396;-80
2022/07/07 08:47:40;;;;;;;;;1.00;1.00;;;;;29.68;37.02;101645.47;5053435;28;46165;-81
2022/07/07 08:50:06;;;;;;;;;1.00;1.00;;;;;30.37;37.48;101668.66;5054314;28;45435;-80
2022/07/07 08:52:31;;;;;;;;;0.00;0.00;;;;;31.05;34.45;101654.56;5054215;28;45464;-79
2022/07/07 08:54:57;;;;;;;;;1.00;0.00;;;;;30.94;34.46;101653.63;5054464;28;45488;-81
2022/07/07 08:57:23;;;;;;;;;1.75;0.25;;;;;30.71;34.90;101668.47;5057720;28;45328;-81
2022/07/07 08:59:48;;;;;;;;;0.75;0.75;;;;;30.40;35.52;101676.66;5056874;28;45424;-79
2022/07/07 09:02:14;;;;;;;;;0.00;0.00;;;;;29.59;35.67;101658.00;5055646;28;45302;-80
2022/07/07 09:04:39;;;;;;;;;0.00;0.00;;;;;29.21;36.68;101672.94;5054383;28;45384;-81
2022/07/07 09:07:06;;;;;;;;;1.00;1.00;;;;;28.77;37.21;101659.22;5053120;27;46397;-80
2022/07/07 09:09:40;;;;;;;;;0.75;0.00;;;;;28.38;37.78;101641.47;5053791;28;45353;-81
2022/07/07 09:12:07;;;;;;;;;0.75;0.75;;;;;28.31;38.47;101679.16;5053777;28;45375;-80
2022/07/07 09:14:39;;;;;;;;;0.00;0.00;;;;;28.09;39.45;101686.28;5054886;28;45542;-79
2022/07/07 09:17:19;;;;;;;;;0.00;0.00;;;;;27.96;38.50;101678.19;5053658;28;46501;-81
2022/07/07 09:19:56;;;;;;;;;1.75;0.75;;;;;28.06;39.21;101670.22;5057434;28;45392;-79
2022/07/07 09:22:40;;;;;;;;;1.00;1.00;;;;;28.15;39.16;101679.47;5057001;28;45374;-79
2022/07/07 09:25:07;;;;;;;;;0.00;0.00;;;;;28.10;38.02;101679.81;5057870;28;45528;-81
2022/07/07 09:27:32;;;;;;;;;1.00;1.00;;;;;27.88;38.46;101677.88;5059224;28;46338;-80
2022/07/07 09:29:58;;;;;;;;;0.00;0.00;;;;;27.72;38.54;101682.75;5059336;28;45295;-80
2022/07/07 09:32:23;;;;;;;;;2.00;2.00;;;;;27.48;39.12;101684.47;5056984;28;45343;-79
2022/07/07 09:34:48;;;;;;;;;0.00;0.00;;;;;27.34;39.29;101692.75;5057985;28;45329;-81
2022/07/07 09:39:58;;;;;;;;;0.00;0.00;;;;;26.91;40.10;101694.00;5057770;28;45341;-80
2022/07/07 09:42:24;;;;;;;;;0.00;0.00;;;;;26.71;40.29;101698.16;5046111;28;45393;-81
2022/07/07 09:45:00;;;;;;;;;0.00;0.00;;;;;26.54;40.83;101702.00;5039123;28;45354;-80
2022/07/07 09:47:26;;;;;;;;;0.75;0.75;;;;;26.50;41.20;101705.91;5051152;28;47050;-80
2022/07/07 09:49:59;;;;;;;;;1.75;0.00;;;;;26.45;41.41;101713.50;5064369;28;45510;-80
2022/07/07 09:52:25;;;;;;;;;1.00;0.00;;;;;26.40;41.50;101707.50;5064947;28;45310;-80
2022/07/07 09:54:51;;;;;;;;;1.00;1.00;;;;;26.07;41.64;101714.28;5059977;28;45416;-80
2022/07/07 09:57:17;;;;;;;;;1.00;0.00;;;;;25.85;42.29;101731.94;5057618;28;46213;-81
2022/07/07 09:59:43;;;;;;;;;0.50;0.50;;;;;25.68;42.74;101734.91;5058198;28;45450;-80
2022/07/07 10:02:27;;;;;;;;;0.00;0.00;;;;;25.67;43.65;101744.84;5060197;28;45441;-81
2022/07/07 10:04:58;;;;;;;;;0.00;0.00;;;;;25.54;43.48;101746.63;5057257;28;45534;-79
2022/07/07 10:07:25;;;;;;;;;1.00;1.00;;;;;25.41;44.06;101751.97;5072408;28;45486;-80
2022/07/07 10:09:54;;;;;;;;;0.00;0.00;;;;;25.25;44.27;101759.28;5057175;28;45332;-80
2022/07/07 10:12:21;;;;;;;;;0.50;0.00;;;;;24.96;45.01;101749.34;5056071;28;45593;-80
2022/07/07 10:14:49;;;;;;;;;0.00;0.00;;;;;24.76;45.02;101769.47;5055187;28;45524;-80
2022/07/07 10:17:16;;;;;;;;;1.50;0.50;;;;;24.47;45.86;101773.94;5056449;28;45422;-79
2022/07/07 10:19:42;;;;;;;;;0.00;0.00;;;;;24.20;46.73;101762.94;5056556;28;45455;-81
2022/07/07 10:22:08;;;;;;;;;0.50;0.00;;;;;24.08;47.07;101775.31;5056311;28;45508;-80
2022/07/07 10:24:35;;;;;;;;;1.25;1.00;;;;;24.12;46.73;101775.03;5056307;28;45393;-80
2022/07/07 10:27:02;;;;;;;;;0.50;0.50;;;;;24.03;47.44;101774.72;5056206;28;45559;-80
2022/07/07 10:29:45;;;;;;;;;0.00;0.00;;;;;24.02;46.93;101786.47;5058856;28;45503;-81
2022/07/07 10:32:16;;;;;;;;;0.00;0.00;;;;;23.90;46.45;101791.63;5059911;28;45323;-80
2022/07/07 10:34:49;;;;;;;;;1.00;1.00;;;;;23.92;46.45;101800.50;5056230;28;45550;-80
2022/07/07 10:37:15;;;;;;;;;1.00;1.00;;;;;23.94;47.07;101800.41;5055770;28;45505;-81
2022/07/07 10:39:43;;;;;;;;;1.00;1.00;;;;;24.07;46.48;101795.19;5055304;28;45479;-80
2022/07/07 10:42:15;;;;;;;;;0.00;0.00;;;;;24.37;46.79;101806.03;5056061;28;45451;-80
2022/07/07 10:44:42;;;;;;;;;0.00;0.00;;;;;24.60;45.83;101806.53;5056556;28;45423;-79
2022/07/07 10:47:10;;;;;;;;;0.75;0.75;;;;;24.62;45.34;101805.47;5055405;28;46365;-81
2022/07/07 10:49:41;;;;;;;;;1.00;0.00;;;;;24.68;45.64;101804.22;5056224;28;45596;-83
2022/07/07 10:52:11;;;;;;;;;0.00;0.00;;;;;24.87;44.92;101809.41;5055877;28;45415;-81
2022/07/07 10:54:48;;;;;;;;;2.00;0.50;;;;;25.13;44.22;101815.03;5057427;28;45452;-80
2022/07/07 10:57:21;;;;;;;;;0.00;0.00;;;;;25.39;44.33;101804.41;5055550;28;46250;-80
2022/07/07 10:59:56;;;;;;;;;1.00;0.00;;;;;25.73;43.49;101805.84;5056072;28;45528;-81
2022/07/07 11:02:39;;;;;;;;;0.00;0.00;;;;;25.81;43.31;101814.34;5058207;28;45448;-80
2022/07/07 11:05:10;;;;;;;;;1.50;0.75;;;;;25.73;43.21;101813.09;5056441;28;45578;-80
2022/07/07 11:07:36;;;;;;;;;1.00;0.00;;;;;25.60;42.61;101799.47;5056559;28;45514;-81
2022/07/07 11:10:11;;;;;;;;;0.25;0.25;;;;;25.59;43.02;101817.56;5071259;28;45482;-80
2022/07/07 11:12:47;;;;;;;;;0.00;0.00;;;;;25.48;43.05;101814.69;5055638;28;45647;-81
2022/07/07 11:15:15;;;;;;;;;1.50;1.00;;;;;25.18;43.68;101829.13;5055239;28;45551;-81
2022/07/07 11:17:49;;;;;;;;;0.00;0.00;;;;;25.00;44.15;101821.16;5054952;28;45424;-80
2022/07/07 11:20:16;;;;;;;;;1.00;1.00;;;;;24.98;44.53;101830.38;5053398;28;45530;-81
2022/07/07 11:22:43;;;;;;;;;1.00;1.00;;;;;24.96;44.72;101830.47;5054530;28;45510;-80
2022/07/07 11:25:10;;;;;;;;;1.00;1.00;;;;;24.94;44.64;101828.81;5055608;28;45404;-80